Time;durP1;ratioP1;P1;durP2;ratioP2;P2;SDS_P1;SDS_P2;PMS_P1;PMS_P2;Temp;Humidity;BMP_temperature;BMP_pressure;BME280_temperature;BME280_humidity;BME280_pressure;Samples;Min_cycle;Max_cycle;Signal;HPM_P1;HPM_P2
2021/01/19 00:00:49;;;;;;;6.57;3.63;;;1.10;99.90;;;;;;5024999;28;20037;-82
2021/01/19 00:03:14;;;;;;;6.47;3.65;;;1.10;99.90;;;;;;5041140;28;20119;-83
2021/01/19 00:05:42;;;;;;;7.70;3.78;;;1.10;99.90;;;;;;5057445;28;20055;-83
2021/01/19 00:08:08;;;;;;;5.97;3.65;;;1.10;99.90;;;;;;5017032;28;20559;-83
2021/01/19 00:10:33;;;;;;;4.80;3.40;;;1.00;99.90;;;;;;5018771;28;20481;-82
2021/01/19 00:12:59;;;;;;;8.88;4.15;;;1.00;99.90;;;;;;5048794;28;20085;-82
2021/01/19 00:15:25;;;;;;;7.15;3.65;;;1.00;99.90;;;;;;5035107;28;20055;-83
2021/01/19 00:17:51;;;;;;;7.80;3.60;;;1.00;99.90;;;;;;5033849;28;20044;-83
2021/01/19 00:20:17;;;;;;;4.78;3.30;;;1.10;99.90;;;;;;5030291;28;20032;-82
2021/01/19 00:22:43;;;;;;;6.13;3.50;;;1.10;99.90;;;;;;5058330;28;20032;-82
2021/01/19 00:25:09;;;;;;;5.70;3.50;;;1.00;99.90;;;;;;5057967;28;20032;-82
2021/01/19 00:27:35;;;;;;;7.97;3.53;;;1.00;99.90;;;;;;5056850;28;20222;-82
2021/01/19 00:30:00;;;;;;;7.57;3.70;;;1.10;99.90;;;;;;5041580;28;20036;-82
2021/01/19 00:32:26;;;;;;;4.82;3.60;;;1.00;99.90;;;;;;5041712;28;20027;-83
2021/01/19 00:34:52;;;;;;;7.32;3.70;;;1.00;99.90;;;;;;5029393;28;20028;-82
2021/01/19 00:37:18;;;;;;;6.72;4.15;;;1.00;99.90;;;;;;5032383;28;20040;-82
2021/01/19 00:39:43;;;;;;;7.47;3.90;;;1.00;99.90;;;;;;5021411;28;20082;-82
2021/01/19 00:42:09;;;;;;;7.68;4.05;;;1.10;99.90;;;;;;5037561;28;20044;-82
2021/01/19 00:44:35;;;;;;;5.32;3.00;;;1.00;99.90;;;;;;5004783;28;20050;-83
2021/01/19 00:47:01;;;;;;;4.63;2.90;;;1.00;99.90;;;;;;5036596;28;20424;-82
2021/01/19 00:49:27;;;;;;;6.03;3.33;;;1.00;99.90;;;;;;5037767;28;20074;-83
2021/01/19 00:51:53;;;;;;;7.40;3.85;;;1.00;99.90;;;;;;5037754;28;20050;-82
2021/01/19 00:54:18;;;;;;;7.28;3.42;;;1.00;99.90;;;;;;5037803;28;20455;-82
2021/01/19 00:56:45;;;;;;;4.65;3.25;;;1.00;99.90;;;;;;5036510;28;20031;-83
2021/01/19 00:59:16;;;;;;;6.03;3.40;;;1.00;99.90;;;;;;5038525;28;20660;-82
2021/01/19 01:01:47;;;;;;;5.30;3.13;;;1.10;99.90;;;;;;5032886;28;20124;-83
2021/01/19 01:04:13;;;;;;;6.95;3.08;;;1.10;99.90;;;;;;5029946;28;20041;-82
2021/01/19 01:06:39;;;;;;;5.43;3.85;;;1.10;99.90;;;;;;5036119;28;20037;-82
2021/01/19 01:09:05;;;;;;;6.13;3.30;;;1.10;99.90;;;;;;5054093;28;20070;-82
2021/01/19 01:11:39;;;;;;;6.55;3.28;;;1.10;99.90;;;;;;5017478;28;20029;-81
2021/01/19 01:14:05;;;;;;;5.93;3.22;;;1.10;99.90;;;;;;5034035;28;20378;-82
2021/01/19 01:16:31;;;;;;;8.65;3.08;;;1.10;99.90;;;;;;5032586;28;20037;-83
2021/01/19 01:18:57;;;;;;;6.53;2.95;;;1.10;99.90;;;;;;5033694;28;20033;-82
2021/01/19 01:21:23;;;;;;;4.93;2.75;;;1.00;99.90;;;;;;5020085;28;20032;-82
2021/01/19 01:23:48;;;;;;;5.05;3.10;;;1.00;99.90;;;;;;5053518;28;20101;-82
2021/01/19 01:26:18;;;;;;;4.72;2.50;;;1.00;99.90;;;;;;5019461;28;20645;-83
2021/01/19 01:28:45;;;;;;;5.45;3.45;;;1.00;99.90;;;;;;5020694;28;20071;-82
2021/01/19 01:31:11;;;;;;;3.88;2.78;;;1.10;99.90;;;;;;5020703;28;20106;-82
2021/01/19 01:33:37;;;;;;;4.18;2.45;;;1.10;99.90;;;;;;5020606;28;20071;-84
2021/01/19 01:36:03;;;;;;;4.88;2.80;;;1.00;99.90;;;;;;5036801;28;20036;-82
2021/01/19 01:38:28;;;;;;;6.38;2.97;;;1.00;99.90;;;;;;5041879;28;20044;-80
2021/01/19 01:40:54;;;;;;;6.00;2.55;;;1.00;99.90;;;;;;5036566;28;20542;-79
2021/01/19 01:43:20;;;;;;;4.47;2.55;;;1.00;99.90;;;;;;5053449;28;20040;-80
2021/01/19 01:45:45;;;;;;;4.55;2.47;;;1.00;99.90;;;;;;5036900;28;20407;-80
2021/01/19 01:48:11;;;;;;;6.07;2.78;;;1.00;99.90;;;;;;5018826;28;20506;-80
2021/01/19 01:50:38;;;;;;;9.65;2.55;;;1.00;99.90;;;;;;5053275;28;20056;-80
2021/01/19 01:53:08;;;;;;;4.32;2.70;;;1.10;99.90;;;;;;5071393;28;20033;-80
2021/01/19 01:55:37;;;;;;;5.80;2.35;;;1.10;99.90;;;;;;5019879;28;20035;-80
2021/01/19 01:58:03;;;;;;;4.28;2.63;;;1.00;99.90;;;;;;5049780;28;20021;-80
2021/01/19 02:00:29;;;;;;;6.28;2.53;;;1.00;99.90;;;;;;5049943;28;20106;-80
2021/01/19 02:02:57;;;;;;;5.45;2.42;;;1.00;99.90;;;;;;5050250;28;20441;-80
2021/01/19 02:05:24;;;;;;;5.03;2.55;;;1.10;99.90;;;;;;5019186;28;20118;-79
2021/01/19 02:08:27;;;;;;;3.15;2.40;;;1.10;99.90;;;;;;5024659;28;20043;-80
2021/01/19 02:10:56;;;;;;;5.07;2.20;;;1.00;99.90;;;;;;5049405;28;20033;-79
2021/01/19 02:13:44;;;;;;;3.53;2.15;;;1.00;99.90;;;;;;5052864;28;20086;-79
2021/01/19 02:16:28;;;;;;;3.35;2.10;;;1.00;99.90;;;;;;5052151;28;20024;-80
2021/01/19 02:19:13;;;;;;;4.20;2.38;;;1.10;99.90;;;;;;5070214;28;20028;-80
2021/01/19 02:22:05;;;;;;;5.65;2.60;;;1.10;99.90;;;;;;5052854;28;20058;-79
2021/01/19 02:24:36;;;;;;;3.53;2.42;;;1.00;99.90;;;;;;5036319;28;20036;-80
2021/01/19 02:27:33;;;;;;;4.15;1.95;;;1.10;99.90;;;;;;5051779;28;20036;-79
2021/01/19 02:30:06;;;;;;;3.03;2.05;;;1.10;99.90;;;;;;5052392;28;20039;-80
2021/01/19 02:32:38;;;;;;;4.40;1.98;;;1.00;99.90;;;;;;5036179;28;20033;-79
2021/01/19 02:35:24;;;;;;;3.70;2.20;;;1.00;99.90;;;;;;5052617;28;20032;-80
2021/01/19 02:38:14;;;;;;;3.30;2.05;;;1.00;99.90;;;;;;5051557;28;20033;-80
2021/01/19 02:40:41;;;;;;;3.45;2.05;;;1.00;99.90;;;;;;5070417;28;20052;-79
2021/01/19 02:43:11;;;;;;;3.10;1.58;;;1.00;99.90;;;;;;5052590;28;20484;-79
2021/01/19 02:45:38;;;;;;;4.97;1.85;;;1.00;99.90;;;;;;5070560;28;20043;-78
2021/01/19 02:48:05;;;;;;;2.67;1.75;;;1.00;99.90;;;;;;5051182;28;20054;-80
2021/01/19 02:50:31;;;;;;;2.20;1.70;;;1.00;99.90;;;;;;5070368;28;20033;-79
2021/01/19 02:52:59;;;;;;;3.83;2.03;;;1.00;99.90;;;;;;5052749;28;20044;-80
2021/01/19 02:55:26;;;;;;;4.15;1.98;;;1.00;99.90;;;;;;5035940;28;20063;-80
2021/01/19 02:58:05;;;;;;;3.95;1.95;;;1.00;99.90;;;;;;5034683;28;20036;-79
2021/01/19 03:00:43;;;;;;;5.90;1.90;;;1.00;99.90;;;;;;5070280;28;20395;-79
2021/01/19 03:03:09;;;;;;;3.40;1.95;;;1.00;99.90;;;;;;5052470;28;20094;-79
2021/01/19 03:05:37;;;;;;;4.05;1.80;;;1.00;99.90;;;;;;5052218;28;20025;-79
2021/01/19 03:08:05;;;;;;;3.75;1.98;;;1.00;99.90;;;;;;5055104;28;20403;-79
2021/01/19 03:10:33;;;;;;;3.65;1.60;;;1.00;99.90;;;;;;5056337;28;20507;-79
2021/01/19 03:13:01;;;;;;;2.53;1.48;;;1.00;99.90;;;;;;5056250;28;20031;-79
2021/01/19 03:15:26;;;;;;;2.90;1.85;;;1.00;99.90;;;;;;5073900;28;20070;-79
2021/01/19 03:17:52;;;;;;;5.05;1.63;;;1.00;99.90;;;;;;5072695;28;20032;-79
2021/01/19 03:20:18;;;;;;;2.40;1.70;;;1.00;99.90;;;;;;5074231;28;20033;-80
2021/01/19 03:22:44;;;;;;;3.85;1.70;;;1.00;99.90;;;;;;5057488;28;20120;-80
2021/01/19 03:25:10;;;;;;;4.93;2.03;;;1.00;99.90;;;;;;5073908;28;20112;-79
2021/01/19 03:27:36;;;;;;;2.58;1.65;;;1.00;99.90;;;;;;5067182;28;20078;-79
2021/01/19 03:30:04;;;;;;;3.30;1.95;;;1.00;99.90;;;;;;5072461;28;20031;-79
2021/01/19 03:32:29;;;;;;;2.17;1.65;;;1.00;99.90;;;;;;5074166;28;20111;-79
2021/01/19 03:34:55;;;;;;;2.83;1.73;;;1.00;99.90;;;;;;5055835;28;20639;-79
2021/01/19 03:37:21;;;;;;;3.80;1.70;;;1.00;99.90;;;;;;5072534;28;20029;-79
2021/01/19 03:39:47;;;;;;;3.80;1.85;;;0.90;99.90;;;;;;5073410;28;20081;-79
2021/01/19 03:42:13;;;;;;;2.97;1.40;;;1.00;99.90;;;;;;5039174;28;20068;-79
2021/01/19 03:44:38;;;;;;;2.35;1.65;;;1.00;99.90;;;;;;5073908;28;20039;-80
2021/01/19 03:47:04;;;;;;;2.50;1.25;;;1.00;99.90;;;;;;5072139;28;20025;-80
2021/01/19 03:49:30;;;;;;;3.63;1.65;;;1.00;99.90;;;;;;5055756;28;20060;-79
2021/01/19 03:51:55;;;;;;;2.28;1.45;;;1.00;99.90;;;;;;5039038;28;20033;-79
2021/01/19 03:54:21;;;;;;;2.75;1.33;;;1.00;99.90;;;;;;5055636;28;20040;-79
2021/01/19 03:56:47;;;;;;;2.08;1.42;;;1.00;99.90;;;;;;5037829;28;20029;-78
2021/01/19 03:59:13;;;;;;;3.08;1.58;;;1.00;99.90;;;;;;5038835;28;20040;-79
2021/01/19 04:01:40;;;;;;;3.08;1.30;;;1.00;99.90;;;;;;5073623;28;20500;-79
2021/01/19 04:04:06;;;;;;;1.85;1.33;;;0.90;99.90;;;;;;5073330;28;20515;-79
2021/01/19 04:06:32;;;;;;;2.40;1.42;;;0.90;99.90;;;;;;5054436;28;20041;-79
2021/01/19 04:08:57;;;;;;;2.85;1.50;;;0.90;99.90;;;;;;5055079;28;20138;-78
2021/01/19 04:11:23;;;;;;;2.35;1.40;;;0.90;99.90;;;;;;5038854;28;20432;-79
2021/01/19 04:13:49;;;;;;;2.75;1.67;;;0.80;99.90;;;;;;5073654;28;20036;-79
2021/01/19 04:16:15;;;;;;;2.35;1.25;;;0.80;99.90;;;;;;5054001;28;20036;-78
2021/01/19 04:18:41;;;;;;;2.92;1.35;;;0.80;99.90;;;;;;5072277;28;20116;-79
2021/01/19 04:21:07;;;;;;;1.60;1.05;;;0.80;99.90;;;;;;5055253;28;20119;-79
2021/01/19 04:23:33;;;;;;;1.30;1.20;;;0.80;99.90;;;;;;5055170;28;20623;-78
2021/01/19 04:25:58;;;;;;;2.40;1.42;;;0.70;99.90;;;;;;5055207;28;20485;-78
2021/01/19 04:28:24;;;;;;;3.25;1.63;;;0.70;99.90;;;;;;5071559;28;20052;-79
2021/01/19 04:30:50;;;;;;;2.10;1.30;;;0.70;99.90;;;;;;5050649;28;20055;-79
2021/01/19 04:33:15;;;;;;;2.20;1.02;;;0.70;99.90;;;;;;5034762;28;20131;-78
2021/01/19 04:35:41;;;;;;;1.48;1.20;;;0.70;99.90;;;;;;5071684;28;20028;-79
2021/01/19 04:38:08;;;;;;;1.23;1.00;;;0.70;99.90;;;;;;5051716;28;20079;-79
2021/01/19 04:40:34;;;;;;;2.10;1.23;;;0.70;99.90;;;;;;5054651;28;20071;-79
2021/01/19 04:43:00;;;;;;;2.08;1.10;;;0.70;99.90;;;;;;5038108;28;20071;-79
2021/01/19 04:45:26;;;;;;;2.55;1.35;;;0.70;99.90;;;;;;5072332;28;20090;-79
2021/01/19 04:47:52;;;;;;;2.88;1.20;;;0.70;99.90;;;;;;5036849;28;20044;-79
2021/01/19 04:50:18;;;;;;;1.83;1.20;;;0.70;99.90;;;;;;5072199;28;20029;-78
2021/01/19 04:52:46;;;;;;;1.25;0.90;;;0.70;99.90;;;;;;5072414;28;20033;-79
2021/01/19 04:55:28;;;;;;;2.65;1.20;;;0.70;99.90;;;;;;5054447;28;20111;-79
2021/01/19 04:58:01;;;;;;;3.60;1.00;;;0.70;99.90;;;;;;5053214;28;20024;-79
2021/01/19 05:00:37;;;;;;;5.47;1.40;;;0.70;99.90;;;;;;5072317;28;20037;-79
2021/01/19 05:03:23;;;;;;;2.50;1.27;;;0.70;99.90;;;;;;5053969;28;20516;-78
2021/01/19 05:06:15;;;;;;;4.20;1.55;;;0.70;99.90;;;;;;5054244;28;20032;-79
2021/01/19 05:08:43;;;;;;;5.30;1.02;;;0.70;99.90;;;;;;5037167;28;20036;-79
2021/01/19 05:12:01;;;;;;;9.00;1.70;;;0.70;99.90;;;;;;5071801;28;20025;-78
2021/01/19 05:14:37;;;;;;;3.28;1.13;;;0.70;99.90;;;;;;5035883;28;20085;-79
2021/01/19 05:17:03;;;;;;;4.45;1.33;;;0.60;99.90;;;;;;5052997;28;20043;-79
2021/01/19 05:19:29;;;;;;;1.65;1.23;;;0.70;99.90;;;;;;5071990;28;20028;-79
2021/01/19 05:21:55;;;;;;;3.90;1.08;;;0.70;99.90;;;;;;5071934;28;20047;-79
2021/01/19 05:24:22;;;;;;;1.38;1.20;;;0.70;99.90;;;;;;5072059;28;20036;-79
2021/01/19 05:26:47;;;;;;;1.35;1.20;;;0.70;99.90;;;;;;5052983;28;20041;-79
2021/01/19 05:29:13;;;;;;;1.63;1.35;;;0.80;99.90;;;;;;5054126;28;20048;-79
2021/01/19 05:31:39;;;;;;;4.82;2.15;;;0.70;99.90;;;;;;5051039;28;20400;-78
2021/01/19 05:34:09;;;;;;;2.38;1.27;;;0.70;99.90;;;;;;5075303;28;20523;-78
2021/01/19 05:36:40;;;;;;;2.22;1.55;;;0.80;99.90;;;;;;5070224;28;20028;-78
2021/01/19 05:39:11;;;;;;;1.77;1.25;;;0.80;99.90;;;;;;5071464;28;20032;-79
2021/01/19 05:41:43;;;;;;;1.70;0.98;;;0.70;99.90;;;;;;5053696;28;20128;-79
2021/01/19 05:44:16;;;;;;;2.90;1.60;;;0.70;99.90;;;;;;5061970;28;20081;-79
2021/01/19 05:46:55;;;;;;;2.38;1.23;;;0.70;99.90;;;;;;5070568;28;20021;-78
2021/01/19 05:49:28;;;;;;;4.25;1.52;;;0.70;99.90;;;;;;5070978;28;20039;-79
2021/01/19 05:52:00;;;;;;;3.45;1.23;;;0.70;99.90;;;;;;5071164;28;20017;-79
2021/01/19 05:54:31;;;;;;;2.28;1.30;;;0.60;99.90;;;;;;5048093;28;20059;-79
2021/01/19 05:57:10;;;;;;;2.60;1.27;;;0.60;99.90;;;;;;5035950;28;20115;-80
2021/01/19 05:59:46;;;;;;;1.73;1.10;;;0.70;99.90;;;;;;5040878;28;20287;-79
2021/01/19 06:02:15;;;;;;;1.75;1.10;;;0.60;99.90;;;;;;5027881;28;20029;-78
2021/01/19 06:04:41;;;;;;;4.30;1.30;;;0.60;99.90;;;;;;5074181;28;20021;-79
2021/01/19 06:07:08;;;;;;;1.80;1.40;;;0.60;99.90;;;;;;5070872;28;20081;-79
2021/01/19 06:09:35;;;;;;;2.05;1.35;;;0.60;99.90;;;;;;5073579;28;20050;-78
2021/01/19 06:12:01;;;;;;;1.98;1.00;;;0.60;99.90;;;;;;5073799;28;20060;-79
2021/01/19 06:14:28;;;;;;;6.05;1.50;;;0.60;99.90;;;;;;5057045;28;20028;-80
2021/01/19 06:17:23;;;;;;;2.00;1.33;;;0.60;99.90;;;;;;5038026;28;20035;-79
2021/01/19 06:19:51;;;;;;;3.20;1.52;;;0.60;99.90;;;;;;5056333;28;20045;-79
2021/01/19 06:22:20;;;;;;;1.60;1.20;;;0.50;99.90;;;;;;5074516;28;20043;-78
2021/01/19 06:24:48;;;;;;;2.42;1.40;;;0.60;99.90;;;;;;5056717;28;20028;-80
2021/01/19 06:27:20;;;;;;;2.85;1.30;;;0.60;99.90;;;;;;5055673;28;20037;-79
2021/01/19 06:29:46;;;;;;;4.85;1.30;;;0.60;99.90;;;;;;5056073;28;20059;-78
2021/01/19 06:32:15;;;;;;;1.88;1.08;;;0.50;99.90;;;;;;5074151;28;20025;-79
2021/01/19 06:34:40;;;;;;;2.55;1.20;;;0.50;99.90;;;;;;5074114;28;20425;-78
2021/01/19 06:37:08;;;;;;;3.60;1.40;;;0.50;99.90;;;;;;5074296;28;20051;-79
2021/01/19 06:39:40;;;;;;;3.25;1.30;;;0.60;99.90;;;;;;5074632;28;20028;-79
2021/01/19 06:42:07;;;;;;;2.30;1.50;;;0.60;99.90;;;;;;5074139;28;20163;-79
2021/01/19 06:44:53;;;;;;;4.07;1.25;;;0.60;99.90;;;;;;5075239;28;20020;-78
2021/01/19 06:47:20;;;;;;;2.88;1.25;;;0.50;99.90;;;;;;5073591;28;20033;-78
2021/01/19 06:49:46;;;;;;;3.42;1.60;;;0.50;99.90;;;;;;5057210;28;20032;-79
2021/01/19 06:52:14;;;;;;;2.58;1.20;;;0.50;99.90;;;;;;5075258;28;20017;-78
2021/01/19 06:54:44;;;;;;;4.72;1.38;;;0.50;99.90;;;;;;5075152;28;20550;-78
2021/01/19 06:57:37;;;;;;;3.40;1.10;;;0.50;99.90;;;;;;5074489;28;20021;-79
2021/01/19 07:00:08;;;;;;;1.65;1.20;;;0.60;99.90;;;;;;5068861;28;20071;-79
2021/01/19 07:02:40;;;;;;;1.75;1.25;;;0.60;99.90;;;;;;5074280;28;20489;-78
2021/01/19 07:05:11;;;;;;;3.70;1.20;;;0.50;99.90;;;;;;5057865;28;20124;-78
2021/01/19 07:07:46;;;;;;;1.00;0.77;;;0.60;99.90;;;;;;5074067;28;20111;-79
2021/01/19 07:10:20;;;;;;;1.38;1.27;;;0.60;99.90;;;;;;5077022;28;20029;-80
2021/01/19 07:13:06;;;;;;;3.20;1.15;;;0.60;99.90;;;;;;5063340;28;20112;-78
2021/01/19 07:15:50;;;;;;;2.50;1.30;;;0.60;99.90;;;;;;5070628;28;20446;-79
2021/01/19 07:18:34;;;;;;;2.38;1.10;;;0.60;99.90;;;;;;5075155;28;20436;-78
2021/01/19 07:21:05;;;;;;;1.50;1.10;;;0.60;99.90;;;;;;5062557;28;20054;-79
2021/01/19 07:23:46;;;;;;;2.22;1.10;;;0.60;99.90;;;;;;5065232;28;20036;-79
2021/01/19 07:26:12;;;;;;;4.78;1.48;;;0.60;99.90;;;;;;5042130;28;20087;-79
2021/01/19 07:28:38;;;;;;;2.47;1.30;;;0.60;99.90;;;;;;5075460;28;20464;-79
2021/01/19 07:31:04;;;;;;;5.45;1.23;;;0.60;99.90;;;;;;5081999;28;20111;-78
2021/01/19 07:33:32;;;;;;;1.88;1.45;;;0.60;99.90;;;;;;5070259;28;20102;-79
2021/01/19 07:35:59;;;;;;;3.33;1.30;;;0.70;99.90;;;;;;5073932;28;20024;-81
2021/01/19 07:38:26;;;;;;;4.70;1.55;;;0.60;99.90;;;;;;5075158;28;20047;-78
2021/01/19 07:40:52;;;;;;;3.13;1.20;;;0.70;99.90;;;;;;5071721;28;20111;-78
2021/01/19 07:43:19;;;;;;;2.08;1.38;;;0.70;99.90;;;;;;5061233;28;20101;-78
2021/01/19 07:45:53;;;;;;;1.95;1.05;;;0.70;99.90;;;;;;5076315;28;20033;-79
2021/01/19 07:48:36;;;;;;;2.30;0.80;;;0.70;99.90;;;;;;5085619;28;20033;-78
2021/01/19 07:51:13;;;;;;;1.48;1.20;;;0.80;99.90;;;;;;5082265;28;20033;-79
2021/01/19 07:53:49;;;;;;;2.53;1.30;;;0.80;99.90;;;;;;5085006;28;20028;-79
2021/01/19 07:56:28;;;;;;;5.22;1.70;;;0.80;99.90;;;;;;5090734;23;20549;-78
2021/01/19 07:58:55;;;;;;;3.38;1.30;;;0.80;99.90;;;;;;5072653;28;20039;-77
2021/01/19 08:01:27;;;;;;;3.65;1.30;;;0.80;99.90;;;;;;5059740;28;20079;-78
2021/01/19 08:03:54;;;;;;;3.20;1.10;;;0.80;99.90;;;;;;5055659;28;20058;-77
2021/01/19 08:06:31;;;;;;;1.90;1.10;;;0.80;99.90;;;;;;5044269;28;20373;-79
2021/01/19 08:09:08;;;;;;;3.45;1.30;;;0.80;99.90;;;;;;5033483;28;20124;-78
2021/01/19 08:11:34;;;;;;;1.70;1.05;;;0.90;99.90;;;;;;5053364;28;20025;-78
2021/01/19 08:14:00;;;;;;;1.25;0.88;;;0.90;99.90;;;;;;5020950;28;20124;-78
2021/01/19 08:16:28;;;;;;;1.50;1.27;;;0.90;99.90;;;;;;5014331;28;20177;-77
2021/01/19 08:19:14;;;;;;;1.52;1.20;;;1.00;99.90;;;;;;5048973;28;20025;-76
2021/01/19 08:21:49;;;;;;;;;;;1.00;99.90;;;;;;5058222;28;20078;-77
2021/01/19 08:24:18;;;;;;;3.45;1.10;;;1.00;99.90;;;;;;5053570;28;20160;-76
2021/01/19 08:26:47;;;;;;;2.03;1.05;;;1.00;99.90;;;;;;5054733;28;20519;-78
2021/01/19 08:29:13;;;;;;;1.42;0.90;;;1.00;99.90;;;;;;5035218;28;20041;-79
2021/01/19 08:31:38;;;;;;;2.95;1.27;;;1.00;99.90;;;;;;5058672;28;20082;-77
2021/01/19 08:34:08;;;;;;;2.72;1.10;;;1.00;99.90;;;;;;5036363;28;20025;-78
2021/01/19 08:36:34;;;;;;;1.65;1.17;;;1.00;99.90;;;;;;5040076;28;20039;-78
2021/01/19 08:39:03;;;;;;;1.77;1.02;;;1.00;99.90;;;;;;5034237;28;20072;-77
2021/01/19 08:41:29;;;;;;;1.83;1.10;;;1.00;99.90;;;;;;5034442;28;20089;-80
2021/01/19 08:44:01;;;;;;;1.08;0.75;;;1.00;99.90;;;;;;5060554;28;20055;-77
2021/01/19 08:46:30;;;;;;;1.45;0.90;;;1.00;99.90;;;;;;5054404;28;20035;-77
2021/01/19 08:49:07;;;;;;;1.38;0.98;;;1.00;99.90;;;;;;5050254;28;20029;-78
2021/01/19 08:51:34;;;;;;;3.22;1.02;;;1.00;99.90;;;;;;5038124;28;20021;-78
2021/01/19 08:54:00;;;;;;;3.63;1.45;;;1.10;99.90;;;;;;5050671;28;20025;-78
2021/01/19 08:56:28;;;;;;;5.40;1.50;;;1.00;99.90;;;;;;5034057;28;20033;-77
2021/01/19 08:58:54;;;;;;;2.47;1.30;;;1.10;99.90;;;;;;5051836;28;20045;-79
2021/01/19 09:01:20;;;;;;;2.80;1.40;;;1.20;99.90;;;;;;5013595;28;20440;-78
2021/01/19 09:03:57;;;;;;;4.05;1.15;;;1.20;99.90;;;;;;5051710;28;20025;-78
2021/01/19 09:06:23;;;;;;;5.97;1.42;;;1.20;99.90;;;;;;5049155;28;20570;-77
2021/01/19 09:08:58;;;;;;;1.42;1.00;;;1.20;99.90;;;;;;5038788;28;20412;-77
2021/01/19 09:11:30;;;;;;;2.40;1.50;;;1.20;99.90;;;;;;5034810;28;20040;-79
2021/01/19 09:14:08;;;;;;;2.45;1.27;;;1.30;99.90;;;;;;5048402;28;20112;-78
2021/01/19 09:16:38;;;;;;;3.33;1.23;;;1.30;99.90;;;;;;5022896;28;20036;-77
2021/01/19 09:19:09;;;;;;;6.85;1.30;;;1.30;99.90;;;;;;5037151;28;20225;-78
2021/01/19 09:21:38;;;;;;;2.95;1.23;;;1.30;99.90;;;;;;5051491;28;20085;-77
2021/01/19 09:24:14;;;;;;;3.25;1.20;;;1.30;99.90;;;;;;5014927;28;20465;-78
2021/01/19 09:26:59;;;;;;;3.10;1.25;;;1.30;99.90;;;;;;5032733;28;20033;-77
2021/01/19 09:29:29;;;;;;;5.38;1.50;;;1.30;99.90;;;;;;5018300;28;20035;-78
2021/01/19 09:32:03;;;;;;;3.65;1.05;;;1.30;99.90;;;;;;5051305;28;20116;-78
2021/01/19 09:34:30;;;;;;;1.67;1.23;;;1.40;99.90;;;;;;5051881;28;20017;-78
2021/01/19 09:36:57;;;;;;;2.42;1.15;;;1.40;99.90;;;;;;5050576;28;20026;-80
2021/01/19 09:39:27;;;;;;;2.05;1.20;;;1.40;99.90;;;;;;5054742;28;20112;-80
2021/01/19 09:42:02;;;;;;;1.77;1.27;;;1.40;99.90;;;;;;5056408;28;20037;-80
2021/01/19 09:44:31;;;;;;;4.50;1.60;;;1.40;99.90;;;;;;5038333;28;20111;-80
2021/01/19 09:47:01;;;;;;;2.28;1.30;;;1.40;99.90;;;;;;5056245;28;20036;-79
2021/01/19 09:49:28;;;;;;;6.10;1.77;;;1.40;99.90;;;;;;5059813;28;20035;-80
2021/01/19 09:51:54;;;;;;;3.97;1.10;;;1.40;99.90;;;;;;5051658;28;20021;-78
2021/01/19 09:54:24;;;;;;;3.33;1.60;;;1.40;99.90;;;;;;5041182;28;20546;-79
2021/01/19 09:56:59;;;;;;;4.25;1.40;;;1.50;99.90;;;;;;5059026;28;20400;-78
2021/01/19 09:59:26;;;;;;;;;;;1.50;99.90;;;;;;5045851;28;20642;-78
2021/01/19 10:01:54;;;;;;;2.58;1.30;;;1.50;99.90;;;;;;5024254;28;19923;-77
2021/01/19 10:04:20;;;;;;;4.75;1.35;;;1.50;99.90;;;;;;5019319;28;20398;-78
2021/01/19 10:06:46;;;;;;;2.55;1.35;;;1.50;99.90;;;;;;5028946;28;20033;-78
2021/01/19 10:09:22;;;;;;;1.70;1.10;;;1.40;99.90;;;;;;5006409;28;20044;-78
2021/01/19 10:11:56;;;;;;;1.60;1.40;;;1.50;99.90;;;;;;5027882;28;20028;-78
2021/01/19 10:14:35;;;;;;;3.90;1.13;;;1.50;99.90;;;;;;5045463;28;20117;-78
2021/01/19 10:17:01;;;;;;;2.13;1.40;;;1.50;99.90;;;;;;5028891;28;20033;-78
2021/01/19 10:19:33;;;;;;;2.17;1.10;;;1.60;99.90;;;;;;5047444;28;20079;-78
2021/01/19 10:22:06;;;;;;;2.72;1.58;;;1.70;99.90;;;;;;5021363;28;20045;-78
2021/01/19 10:24:32;;;;;;;1.52;0.98;;;1.70;99.90;;;;;;5053734;28;20025;-79
2021/01/19 10:27:07;;;;;;;1.58;1.13;;;1.70;99.90;;;;;;5044322;28;20029;-78
2021/01/19 10:29:41;;;;;;;2.40;1.15;;;1.70;99.90;;;;;;5023190;28;20699;-78
2021/01/19 10:32:08;;;;;;;2.30;1.10;;;1.70;99.90;;;;;;5049072;28;20087;-78
2021/01/19 10:34:34;;;;;;;1.52;1.20;;;1.70;99.90;;;;;;5053442;28;20032;-79
2021/01/19 10:37:01;;;;;;;3.20;1.75;;;1.70;99.90;;;;;;5015266;28;20431;-77
2021/01/19 10:39:30;;;;;;;1.65;1.10;;;1.70;99.90;;;;;;5013827;28;20060;-77
2021/01/19 10:41:57;;;;;;;4.28;1.40;;;1.70;99.90;;;;;;5052568;28;20071;-79
2021/01/19 10:44:24;;;;;;;2.58;1.25;;;1.70;99.90;;;;;;5050511;28;20056;-78
2021/01/19 10:46:58;;;;;;;1.65;1.00;;;1.70;99.90;;;;;;5047513;28;20024;-77
2021/01/19 10:49:31;;;;;;;1.73;0.90;;;1.70;99.90;;;;;;5045862;28;20131;-78
2021/01/19 10:51:59;;;;;;;2.60;1.20;;;1.70;99.90;;;;;;5026546;28;20082;-78
2021/01/19 10:54:25;;;;;;;4.40;1.10;;;1.70;99.90;;;;;;5051177;28;20807;-78
2021/01/19 10:57:05;;;;;;;2.03;1.02;;;1.70;99.90;;;;;;5053421;28;20112;-78
2021/01/19 10:59:32;;;;;;;2.35;0.77;;;1.80;99.90;;;;;;5033106;28;20808;-79
2021/01/19 11:01:58;;;;;;;2.58;1.38;;;1.80;99.90;;;;;;5032992;28;20075;-78
2021/01/19 11:04:24;;;;;;;2.10;0.98;;;1.80;99.90;;;;;;5054012;28;20053;-78
2021/01/19 11:06:50;;;;;;;1.75;1.55;;;1.80;99.90;;;;;;5051990;28;20025;-77
2021/01/19 11:09:16;;;;;;;3.35;1.00;;;1.80;99.90;;;;;;5017933;28;20096;-78
2021/01/19 11:11:42;;;;;;;2.42;1.30;;;1.70;99.90;;;;;;5044647;28;20746;-80
2021/01/19 11:14:08;;;;;;;2.50;1.40;;;1.70;99.90;;;;;;5044617;28;20033;-79
2021/01/19 11:16:40;;;;;;;3.28;1.33;;;1.70;99.90;;;;;;5011605;28;20068;-79
2021/01/19 11:19:14;;;;;;;2.72;1.00;;;1.70;99.90;;;;;;5027934;28;20128;-78
2021/01/19 11:21:42;;;;;;;3.63;1.52;;;1.60;99.90;;;;;;5025606;28;20037;-79
2021/01/19 11:24:09;;;;;;;4.25;1.48;;;1.60;99.90;;;;;;5010836;28;20037;-79
2021/01/19 11:26:36;;;;;;;1.45;1.00;;;1.50;99.90;;;;;;5006674;28;20021;-79
2021/01/19 11:29:03;;;;;;;3.78;1.48;;;1.50;99.90;;;;;;4995302;28;20648;-80
2021/01/19 11:31:31;;;;;;;2.80;1.52;;;1.40;99.90;;;;;;4983066;28;20021;-79
2021/01/19 11:33:58;;;;;;;4.18;1.30;;;1.40;99.90;;;;;;5038728;28;20036;-78
2021/01/19 11:36:26;;;;;;;3.00;1.50;;;1.40;99.90;;;;;;5043973;28;20051;-79
2021/01/19 11:38:54;;;;;;;2.80;1.60;;;1.40;99.90;;;;;;5028633;28;20078;-79
2021/01/19 11:41:22;;;;;;;4.07;1.35;;;1.40;99.90;;;;;;5014086;28;20761;-78
2021/01/19 11:43:49;;;;;;;2.70;1.58;;;1.40;99.90;;;;;;5023033;28;20033;-79
2021/01/19 11:46:25;;;;;;;1.55;1.10;;;1.40;99.90;;;;;;5034512;28;20025;-78
2021/01/19 11:48:53;;;;;;;2.55;1.23;;;1.40;99.90;;;;;;5039875;28;20090;-78
2021/01/19 11:51:24;;;;;;;2.65;1.90;;;1.40;99.90;;;;;;5004308;28;20116;-79
2021/01/19 11:53:51;;;;;;;3.22;1.52;;;1.40;99.90;;;;;;5031160;28;20029;-79
2021/01/19 11:56:18;;;;;;;5.15;1.23;;;1.40;99.90;;;;;;4998630;28;20033;-78
2021/01/19 11:58:45;;;;;;;3.30;1.52;;;1.40;99.90;;;;;;5015233;28;20033;-78
2021/01/19 12:01:20;;;;;;;2.45;1.40;;;1.40;99.90;;;;;;5034605;28;20122;-78
2021/01/19 12:03:47;;;;;;;1.90;1.50;;;1.30;99.90;;;;;;5025625;28;20053;-78
2021/01/19 12:06:14;;;;;;;3.13;1.30;;;1.30;99.90;;;;;;5052762;28;20025;-78
2021/01/19 12:08:40;;;;;;;2.65;1.58;;;1.30;99.90;;;;;;5013994;28;20040;-78
2021/01/19 12:11:07;;;;;;;4.50;1.55;;;1.30;99.90;;;;;;5030043;28;20036;-79
2021/01/19 12:13:33;;;;;;;2.28;1.48;;;1.30;99.90;;;;;;5035765;28;20036;-78
2021/01/19 12:15:58;;;;;;;4.07;1.80;;;1.20;99.90;;;;;;5030953;28;20516;-80
2021/01/19 12:18:24;;;;;;;3.42;1.55;;;1.20;99.90;;;;;;5014149;28;20043;-78
2021/01/19 12:20:50;;;;;;;3.28;1.67;;;1.20;99.90;;;;;;5004303;28;20044;-79
2021/01/19 12:23:16;;;;;;;1.45;1.23;;;1.20;99.90;;;;;;5001654;28;20060;-79
2021/01/19 12:25:41;;;;;;;3.25;1.70;;;1.20;99.90;;;;;;5029272;28;20036;-79
2021/01/19 12:28:07;;;;;;;5.47;1.67;;;1.20;99.90;;;;;;5013835;28;20037;-79
2021/01/19 12:30:33;;;;;;;2.40;1.50;;;1.10;99.90;;;;;;5027093;28;20060;-79
2021/01/19 12:32:59;;;;;;;2.20;1.50;;;1.20;99.90;;;;;;5025348;28;20025;-78
2021/01/19 12:35:24;;;;;;;3.10;1.63;;;1.10;99.90;;;;;;5030625;28;20025;-78
2021/01/19 12:37:56;;;;;;;3.67;1.60;;;1.10;99.90;;;;;;5023655;28;20086;-79
2021/01/19 12:40:22;;;;;;;2.00;1.30;;;1.10;99.90;;;;;;5041199;28;20124;-78
2021/01/19 12:42:49;;;;;;;3.88;1.90;;;1.10;99.90;;;;;;5022950;28;20032;-78
2021/01/19 12:45:16;;;;;;;5.60;1.48;;;1.10;99.90;;;;;;5035192;28;20036;-79
2021/01/19 12:47:42;;;;;;;2.63;1.60;;;1.10;99.90;;;;;;5044500;28;20489;-78
2021/01/19 12:50:08;;;;;;;4.88;1.65;;;1.20;99.90;;;;;;5034252;28;20108;-78
2021/01/19 12:52:35;;;;;;;3.10;1.83;;;1.20;99.90;;;;;;5027188;28;20025;-77
2021/01/19 12:55:00;;;;;;;4.03;1.52;;;1.10;99.90;;;;;;5019548;28;20132;-77
2021/01/19 12:57:26;;;;;;;3.03;1.60;;;1.10;99.90;;;;;;5014283;28;20116;-77
2021/01/19 12:59:52;;;;;;;4.30;2.10;;;1.10;99.90;;;;;;5028052;28;20049;-79
2021/01/19 13:02:17;;;;;;;2.83;1.70;;;1.10;99.90;;;;;;5028312;28;20040;-77
2021/01/19 13:04:43;;;;;;;3.00;1.90;;;1.00;99.90;;;;;;5034536;28;20028;-76
2021/01/19 13:07:13;;;;;;;1.98;1.38;;;1.10;99.90;;;;;;5024862;28;20041;-78
2021/01/19 13:09:40;;;;;;;3.30;1.92;;;1.10;99.90;;;;;;5025439;28;20033;-76